Time;durP1;ratioP1;P1;durP2;ratioP2;P2;SDS_P1;SDS_P2;PMS_P1;PMS_P2;Temp;Humidity;BMP_temperature;BMP_pressure;BME280_temperature;BME280_humidity;BME280_pressure;Samples;Min_cycle;Max_cycle;Signal;HPM_P1;HPM_P2
2022/10/17 00:01:28;;;;;;;4.47;3.13;;;;;;;15.22;83.30;99336.75;5063708;28;20194;-45
2022/10/17 00:03:54;;;;;;;4.47;3.30;;;;;;;15.25;83.43;99344.50;5056505;28;20036;-48
2022/10/17 00:06:21;;;;;;;5.80;3.30;;;;;;;15.29;83.26;99340.88;5059817;28;20099;-47
2022/10/17 00:08:48;;;;;;;5.18;3.25;;;;;;;15.32;82.81;99332.94;5058120;28;20055;-47
2022/10/17 00:11:19;;;;;;;5.53;2.83;;;;;;;15.32;83.12;99327.72;5053355;28;20075;-46
2022/10/17 00:13:47;;;;;;;6.03;2.90;;;;;;;15.35;82.83;99334.59;5063232;28;20488;-46
2022/10/17 00:16:22;;;;;;;6.82;3.22;;;;;;;15.35;82.48;99330.25;5059865;28;20163;-46
2022/10/17 00:18:49;;;;;;;3.60;2.55;;;;;;;15.31;82.30;99333.88;5055137;28;20094;-47
2022/10/17 00:21:19;;;;;;;7.40;3.92;;;;;;;15.33;82.07;99332.03;5066396;28;20040;-49
2022/10/17 00:23:47;;;;;;;3.60;2.88;;;;;;;15.34;82.06;99336.38;5056117;28;20048;-45
2022/10/17 00:26:15;;;;;;;6.65;2.97;;;;;;;15.34;81.94;99344.22;5066754;28;20056;-45
2022/10/17 00:28:48;;;;;;;4.88;3.63;;;;;;;15.31;82.11;99354.75;5064213;28;20057;-46
2022/10/17 00:31:18;;;;;;;3.83;3.40;;;;;;;15.32;81.60;99350.34;5054623;28;20052;-46
2022/10/17 00:33:47;;;;;;;5.53;2.90;;;;;;;15.34;81.77;99349.41;5051848;28;20040;-47
2022/10/17 00:36:18;;;;;;;5.93;3.92;;;;;;;15.33;82.16;99346.88;5061425;28;20540;-47
2022/10/17 00:38:46;;;;;;;4.80;2.90;;;;;;;15.34;81.50;99344.22;5049574;28;20107;-47
2022/10/17 00:41:15;;;;;;;6.68;2.92;;;;;;;15.34;81.31;99359.84;5050931;28;20123;-46
2022/10/17 00:46:29;;;;;;;6.10;1.60;;;;;;;15.31;81.18;99359.09;5112032;27;20126;-44
2022/10/17 00:48:57;;;;;;;;;;;;;;;15.13;81.67;99362.25;5076606;28;20453;-46
2022/10/17 00:51:32;;;;;;;3.15;1.10;;;;;;;15.25;80.77;99360.16;5074496;28;19995;-44
2022/10/17 00:54:00;;;;;;;4.43;1.40;;;;;;;15.24;81.22;99369.75;5076345;28;20543;-46
2022/10/17 00:56:27;;;;;;;3.80;2.05;;;;;;;15.24;81.00;99363.66;5081334;28;20076;-48
2022/10/17 00:58:54;;;;;;;5.63;1.55;;;;;;;15.21;81.08;99363.75;5084440;28;20082;-48
2022/10/17 01:01:21;;;;;;;8.98;1.50;;;;;;;15.22;80.95;99361.09;5081416;28;20106;-46
2022/10/17 01:03:48;;;;;;;6.90;1.63;;;;;;;15.22;80.70;99349.81;5078891;27;20043;-49
2022/10/17 01:06:14;;;;;;;3.92;1.10;;;;;;;15.16;80.93;99351.72;5074986;27;20079;-45
2022/10/17 01:08:41;;;;;;;4.80;1.08;;;;;;;15.16;80.93;99364.78;5074274;28;20068;-47
2022/10/17 01:11:26;;;;;;;4.70;1.30;;;;;;;15.12;80.30;99364.91;5083185;28;20102;-47
2022/10/17 01:14:06;;;;;;;2.97;1.10;;;;;;;15.11;80.48;99358.00;5072679;28;20045;-44
2022/10/17 01:16:43;;;;;;;1.67;1.25;;;;;;;15.10;80.58;99351.91;5073306;28;20345;-49
2022/10/17 01:19:42;;;;;;;6.20;0.95;;;;;;;15.02;80.50;99362.63;5079118;28;20131;-45
2022/10/17 01:30:34;;;;;;;4.53;1.27;;;;;;;15.03;80.12;99358.25;5090104;27;20124;-44
2022/10/17 01:36:09;;;;;;;4.15;2.15;;;;;;;14.97;80.41;99361.06;5104066;27;20126;-46
2022/10/17 01:38:46;;;;;;;3.65;2.00;;;;;;;14.97;80.40;99363.66;5064040;28;20535;-48
2022/10/17 01:46:40;;;;;;;7.53;1.17;;;;;;;14.96;80.28;99370.63;5114965;27;20128;-47
2022/10/17 01:49:10;;;;;;;4.15;0.90;;;;;;;14.98;80.39;99373.19;5015353;28;20101;-45
2022/10/17 01:51:46;;;;;;;6.80;1.30;;;;;;;14.97;80.40;99372.34;5002126;28;20045;-47
2022/10/17 01:54:26;;;;;;;3.95;1.00;;;;;;;14.96;80.06;99369.78;5000780;28;20141;-46
2022/10/17 01:57:00;;;;;;;8.65;1.00;;;;;;;15.01;80.45;99362.66;4999182;28;20595;-45
2022/10/17 01:59:37;;;;;;;6.35;0.98;;;;;;;15.01;80.04;99367.88;5030526;28;20074;-45
2022/10/17 02:02:06;;;;;;;4.25;1.10;;;;;;;15.00;80.22;99371.41;5002807;28;20136;-45
2022/10/17 02:04:34;;;;;;;4.03;1.45;;;;;;;15.01;80.27;99368.75;5000211;28;20142;-46
2022/10/17 02:07:09;;;;;;;4.00;1.60;;;;;;;15.03;79.71;99381.72;5005031;28;20046;-47
2022/10/17 02:09:37;;;;;;;3.38;1.35;;;;;;;15.06;80.17;99381.59;4998097;28;20078;-48
2022/10/17 02:17:56;;;;;;;5.07;1.02;;;;;;;15.04;80.51;99391.25;5095203;27;20126;-48
2022/10/17 02:20:39;;;;;;;3.75;0.60;;;;;;;15.08;79.44;99392.84;5058354;28;20082;-48
2022/10/17 02:25:52;;;;;;;4.63;1.15;;;;;;;15.10;79.64;99406.69;5117601;27;20137;-44
2022/10/17 02:33:48;;;;;;;4.07;2.30;;;;;;;15.12;79.21;99412.72;5090757;27;20464;-46
2022/10/17 02:36:20;;;;;;;3.28;1.40;;;;;;;15.13;79.47;99418.81;5041081;28;20475;-49
2022/10/17 02:38:49;;;;;;;2.25;0.90;;;;;;;15.14;79.23;99431.75;5044234;28;20585;-49
2022/10/17 02:41:17;;;;;;;4.93;0.90;;;;;;;15.15;79.14;99417.84;5059402;28;20123;-45
2022/10/17 02:43:47;;;;;;;5.47;1.20;;;;;;;15.15;78.98;99433.50;5064061;28;20071;-44
2022/10/17 02:46:19;;;;;;;7.68;0.88;;;;;;;15.14;79.83;99429.16;5057820;28;20536;-44
2022/10/17 02:48:52;;;;;;;5.18;1.10;;;;;;;15.12;79.19;99417.94;5056012;28;20086;-47
2022/10/17 02:51:35;;;;;;;2.53;1.38;;;;;;;15.09;79.14;99436.28;5060122;28;20068;-51
2022/10/17 02:54:27;;;;;;;3.97;0.55;;;;;;;15.05;79.44;99437.28;5056839;28;20055;-46
2022/10/17 02:57:01;;;;;;;3.22;1.23;;;;;;;15.08;79.01;99442.41;5062900;28;20571;-47
2022/10/17 02:59:32;;;;;;;2.70;1.10;;;;;;;15.10;79.63;99439.75;5059169;28;20041;-45
2022/10/17 03:02:04;;;;;;;3.75;0.70;;;;;;;15.09;79.72;99443.25;5051038;28;20041;-48
2022/10/17 03:04:32;;;;;;;4.53;0.75;;;;;;;15.10;79.08;99440.59;5057667;28;20135;-44
2022/10/17 03:06:59;;;;;;;3.63;0.75;;;;;;;15.12;79.50;99438.81;5059798;28;20044;-48
2022/10/17 03:09:26;;;;;;;7.43;0.95;;;;;;;15.10;79.31;99445.81;5059519;28;20038;-48
2022/10/17 03:11:52;;;;;;;3.40;0.90;;;;;;;15.11;79.11;99450.16;5058181;28;20051;-47
2022/10/17 03:14:19;;;;;;;4.05;0.98;;;;;;;15.12;79.50;99449.22;5060045;28;20127;-47
2022/10/17 03:16:45;;;;;;;3.58;0.88;;;;;;;15.11;79.06;99439.72;5054406;28;20668;-47
2022/10/17 03:19:12;;;;;;;4.25;1.48;;;;;;;15.11;79.37;99437.09;5060993;28;20041;-44
2022/10/17 03:21:39;;;;;;;4.65;1.23;;;;;;;15.12;79.64;99438.81;5055283;28;20041;-44
2022/10/17 03:24:06;;;;;;;4.20;1.33;;;;;;;15.12;79.21;99441.41;5056220;28;20053;-45
2022/10/17 03:26:33;;;;;;;2.85;0.70;;;;;;;15.13;79.04;99443.13;5060193;28;20135;-47
2022/10/17 03:28:59;;;;;;;11.45;2.05;;;;;;;15.16;79.30;99448.22;5057827;28;20045;-43
2022/10/17 03:31:26;;;;;;;7.68;1.88;;;;;;;15.16;79.08;99448.22;5056359;28;20590;-46
2022/10/17 03:33:52;;;;;;;6.50;2.45;;;;;;;15.18;79.29;99442.09;5062535;28;20462;-47
2022/10/17 03:36:19;;;;;;;4.93;0.75;;;;;;;15.16;79.40;99450.84;5055275;28;20128;-47
2022/10/17 03:38:47;;;;;;;5.57;1.08;;;;;;;15.19;79.12;99459.50;5059270;28;20044;-46
2022/10/17 03:41:13;;;;;;;3.67;0.90;;;;;;;15.17;79.30;99459.53;5055714;28;20053;-48
2022/10/17 03:43:40;;;;;;;2.15;0.85;;;;;;;15.15;79.00;99459.59;5051861;28;20509;-48
2022/10/17 03:46:06;;;;;;;2.83;1.08;;;;;;;15.18;78.87;99469.06;5046261;28;20123;-48
2022/10/17 03:48:33;;;;;;;4.28;1.13;;;;;;;15.20;79.23;99456.81;5043823;28;20684;-48
2022/10/17 03:51:03;;;;;;;8.27;1.17;;;;;;;15.22;78.59;99452.41;5047258;28;20487;-47
2022/10/17 03:53:31;;;;;;;5.28;1.27;;;;;;;15.23;79.10;99461.09;5042192;28;20591;-45
2022/10/17 03:56:08;;;;;;;4.82;1.48;;;;;;;15.22;79.14;99467.19;5048329;28;20047;-47
2022/10/17 03:58:35;;;;;;;5.60;1.08;;;;;;;15.24;79.27;99473.22;5039935;28;20132;-46
2022/10/17 04:01:05;;;;;;;8.23;0.95;;;;;;;15.27;78.75;99478.34;5045679;28;20128;-48
2022/10/17 04:03:32;;;;;;;4.50;0.75;;;;;;;15.26;79.12;99471.41;5047327;28;20052;-45
2022/10/17 04:05:59;;;;;;;9.75;1.13;;;;;;;15.25;78.37;99485.38;5048810;28;20552;-50
2022/10/17 04:08:27;;;;;;;5.60;0.95;;;;;;;15.24;78.71;99478.44;5045726;28;20133;-46
2022/10/17 04:11:03;;;;;;;5.20;0.73;;;;;;;15.13;78.17;99474.41;5044242;28;20051;-47
2022/10/17 04:13:31;;;;;;;2.80;0.95;;;;;;;15.11;78.57;99481.44;5046024;28;20576;-45
2022/10/17 04:16:01;;;;;;;1.15;0.73;;;;;;;15.05;77.83;99499.88;5045548;28;20504;-48
2022/10/17 04:18:28;;;;;;;1.98;0.50;;;;;;;14.94;77.53;99496.72;5046977;28;20131;-49
2022/10/17 04:20:54;;;;;;;2.50;0.73;;;;;;;14.83;76.72;99495.28;5046437;28;20052;-46
2022/10/17 04:23:21;;;;;;;2.75;0.75;;;;;;;14.70;76.52;99496.53;5044531;28;20045;-47
2022/10/17 04:25:48;;;;;;;5.20;0.63;;;;;;;14.61;76.19;99490.69;5039988;28;20128;-46
2022/10/17 04:28:15;;;;;;;4.68;0.43;;;;;;;14.51;76.40;99495.31;5039015;28;20072;-46
2022/10/17 04:30:41;;;;;;;1.98;0.40;;;;;;;14.45;75.50;99492.84;5043512;28;20084;-44
2022/10/17 04:33:11;;;;;;;1.70;0.52;;;;;;;14.39;75.08;99491.28;5046023;28;20044;-47
2022/10/17 04:35:37;;;;;;;4.30;1.10;;;;;;;14.32;75.25;99489.72;5047630;28;20155;-45
2022/10/17 04:38:04;;;;;;;2.00;0.70;;;;;;;14.24;74.82;99496.91;5043586;28;20136;-48
2022/10/17 04:40:30;;;;;;;1.23;0.50;;;;;;;14.18;75.14;99489.28;5046368;28;20084;-47
2022/10/17 04:42:57;;;;;;;4.90;0.77;;;;;;;14.12;75.82;99501.53;5040771;28;20145;-45
2022/10/17 04:45:23;;;;;;;4.88;0.70;;;;;;;14.08;75.13;99512.94;5045365;28;20079;-46
2022/10/17 04:47:50;;;;;;;3.53;0.70;;;;;;;14.05;75.01;99502.59;5043799;28;20053;-47
2022/10/17 04:50:17;;;;;;;1.67;0.95;;;;;;;14.01;74.39;99506.16;5043721;28;20144;-45
2022/10/17 04:52:43;;;;;;;4.03;0.57;;;;;;;13.95;74.85;99512.38;5044390;28;20049;-45
2022/10/17 04:55:10;;;;;;;5.78;0.73;;;;;;;13.94;75.29;99515.03;5037782;28;20124;-44
2022/10/17 04:57:37;;;;;;;5.25;1.48;;;;;;;13.92;74.80;99522.91;5040028;28;20475;-48
2022/10/17 05:00:04;;;;;;;4.55;0.65;;;;;;;13.92;74.53;99532.44;5046256;28;20128;-43
2022/10/17 05:02:30;;;;;;;9.27;0.85;;;;;;;13.83;74.39;99513.56;5043609;28;20045;-44
2022/10/17 05:04:57;;;;;;;1.75;0.95;;;;;;;13.86;74.54;99529.13;5041990;28;20467;-46
2022/10/17 05:07:24;;;;;;;4.82;0.90;;;;;;;13.84;74.20;99519.59;5040923;28;20079;-44
2022/10/17 05:09:50;;;;;;;3.17;0.40;;;;;;;13.81;75.18;99515.34;5047265;28;20123;-44
2022/10/17 05:12:17;;;;;;;1.33;0.75;;;;;;;13.80;74.42;99513.63;5046089;28;20076;-43
2022/10/17 05:14:43;;;;;;;4.28;0.80;;;;;;;13.78;74.61;99531.03;5044342;28;20061;-47
2022/10/17 05:17:10;;;;;;;3.05;0.60;;;;;;;13.77;74.88;99536.28;5041547;28;20045;-46
2022/10/17 05:19:37;;;;;;;6.15;0.75;;;;;;;13.75;74.16;99552.78;5045328;28;20107;-44
2022/10/17 05:22:03;;;;;;;1.13;0.43;;;;;;;13.77;74.21;99546.69;5045442;28;20104;-43
2022/10/17 05:24:30;;;;;;;4.50;1.45;;;;;;;13.75;74.32;99557.16;5042459;28;20568;-46
2022/10/17 05:26:56;;;;;;;4.57;0.52;;;;;;;13.74;75.24;99566.69;5042410;28;20127;-45
2022/10/17 05:29:23;;;;;;;2.47;0.65;;;;;;;13.74;74.76;99566.69;5043896;28;20060;-46
2022/10/17 05:31:50;;;;;;;2.40;0.80;;;;;;;13.75;74.60;99567.56;5043539;28;20048;-46
2022/10/17 05:34:16;;;;;;;3.20;0.60;;;;;;;13.74;75.51;99565.81;5043060;28;20044;-48
2022/10/17 05:36:43;;;;;;;3.50;0.90;;;;;;;13.74;74.74;99565.81;5043278;28;20166;-48
2022/10/17 05:39:13;;;;;;;6.97;0.80;;;;;;;13.74;74.61;99566.69;5042124;28;20053;-46
2022/10/17 05:41:40;;;;;;;4.93;0.93;;;;;;;13.73;75.09;99574.53;5041359;28;20084;-49
2022/10/17 05:44:06;;;;;;;3.35;1.00;;;;;;;13.73;74.62;99587.53;5043217;28;20068;-44
2022/10/17 05:46:33;;;;;;;1.30;0.57;;;;;;;13.72;74.96;99588.44;5039834;28;20084;-47
2022/10/17 05:48:59;;;;;;;3.78;0.88;;;;;;;13.71;75.33;99591.94;5044455;28;20040;-46
2022/10/17 05:51:26;;;;;;;5.75;0.75;;;;;;;13.70;74.94;99608.44;5041148;28;21415;-46
2022/10/17 05:53:53;;;;;;;7.18;1.23;;;;;;;13.68;75.24;99605.84;5042427;28;20051;-46
2022/10/17 05:56:19;;;;;;;4.97;1.55;;;;;;;13.66;75.45;99609.38;5038230;28;20597;-45
2022/10/17 05:58:46;;;;;;;7.18;0.82;;;;;;;13.65;75.96;99618.09;5040850;28;20230;-47
2022/10/17 06:01:17;;;;;;;4.47;0.93;;;;;;;13.61;75.28;99618.16;5038265;28;20057;-46
2022/10/17 06:03:44;;;;;;;3.65;0.85;;;;;;;13.61;76.20;99615.56;5043587;28;20049;-47
2022/10/17 06:06:12;;;;;;;7.60;1.02;;;;;;;13.61;75.51;99618.16;5045274;28;20052;-44
2022/10/17 06:08:39;;;;;;;5.45;1.65;;;;;;;13.59;75.56;99626.91;5040365;28;20049;-44
2022/10/17 06:11:06;;;;;;;5.32;0.90;;;;;;;13.56;76.14;99627.81;5044352;28;20080;-44
2022/10/17 06:13:36;;;;;;;;;;;;;;;13.41;76.20;99636.75;5043989;28;20037;-46
2022/10/17 06:16:02;;;;;;;5.38;0.82;;;;;;;13.52;76.19;99651.34;5044688;28;19929;-44
2022/10/17 06:18:29;;;;;;;6.18;0.82;;;;;;;13.52;75.73;99665.22;5042819;28;20144;-45
2022/10/17 06:21:06;;;;;;;7.40;0.98;;;;;;;13.51;76.16;99673.03;5041828;28;20144;-47
2022/10/17 06:23:33;;;;;;;7.25;1.48;;;;;;;13.53;75.84;99677.31;5035221;28;20052;-47
2022/10/17 06:26:01;;;;;;;6.47;1.00;;;;;;;13.53;76.06;99677.31;5044945;28;20049;-45
2022/10/17 06:28:28;;;;;;;2.58;0.85;;;;;;;13.54;76.52;99684.22;5042919;28;20143;-46
2022/10/17 06:30:55;;;;;;;6.95;0.80;;;;;;;13.55;76.53;99685.97;5036772;28;20140;-47
2022/10/17 06:33:22;;;;;;;3.90;1.08;;;;;;;13.55;76.02;99691.16;5045105;28;20049;-46
2022/10/17 06:35:52;;;;;;;4.97;1.63;;;;;;;13.56;76.50;99692.88;5041589;28;20456;-48
2022/10/17 06:38:19;;;;;;;13.75;1.08;;;;;;;13.57;76.35;99704.97;5041619;28;20120;-46
2022/10/17 06:40:45;;;;;;;8.90;1.63;;;;;;;13.58;76.78;99711.88;5044167;28;20475;-46
2022/10/17 06:43:12;;;;;;;6.72;1.17;;;;;;;13.60;76.53;99723.13;5043165;28;20049;-46
2022/10/17 06:45:39;;;;;;;7.13;0.80;;;;;;;13.59;77.21;99729.25;5045636;28;20044;-45
2022/10/17 06:48:06;;;;;;;6.70;1.33;;;;;;;13.60;77.18;99730.94;5043756;28;20061;-48
2022/10/17 06:50:33;;;;;;;7.22;0.65;;;;;;;13.64;76.74;99738.69;5040460;28;20976;-45
2022/10/17 06:53:00;;;;;;;10.55;1.50;;;;;;;13.67;77.13;99736.88;5037033;28;20068;-47
2022/10/17 06:55:27;;;;;;;9.07;1.08;;;;;;;13.69;77.56;99739.44;5042823;28;20048;-46
2022/10/17 06:57:55;;;;;;;5.28;0.93;;;;;;;13.73;77.43;99746.31;5044985;28;20045;-46
2022/10/17 07:00:22;;;;;;;6.57;0.88;;;;;;;13.74;77.36;99748.00;5036329;28;20132;-45
2022/10/17 07:02:49;;;;;;;9.48;1.35;;;;;;;13.76;76.55;99751.44;5043049;28;20072;-49
2022/10/17 07:05:18;;;;;;;4.80;0.60;;;;;;;13.78;77.45;99754.84;5038733;28;20065;-49
2022/10/17 07:07:45;;;;;;;9.45;1.67;;;;;;;13.81;76.91;99765.22;5046643;28;20059;-46
2022/10/17 07:10:16;;;;;;;6.68;0.70;;;;;;;13.84;77.15;99769.50;5039671;28;20500;-45
2022/10/17 07:12:44;;;;;;;10.57;0.90;;;;;;;13.87;76.65;99772.03;5036676;28;20077;-43
2022/10/17 07:15:11;;;;;;;3.72;1.23;;;;;;;13.89;76.59;99778.09;5043497;28;20514;-46
2022/10/17 07:17:38;;;;;;;9.73;2.03;;;;;;;13.91;76.31;99780.66;5040302;28;20514;-46
2022/10/17 07:20:05;;;;;;;9.48;1.48;;;;;;;13.93;76.88;99789.28;5043708;28;20057;-49
2022/10/17 07:22:32;;;;;;;7.90;1.15;;;;;;;13.95;76.19;99797.94;5038504;28;20057;-44
2022/10/17 07:24:59;;;;;;;7.93;0.93;;;;;;;13.95;77.00;99803.13;5049426;28;20127;-46
2022/10/17 07:27:25;;;;;;;9.02;1.60;;;;;;;13.97;76.89;99817.84;5041723;28;20080;-44
2022/10/17 07:29:52;;;;;;;8.35;1.15;;;;;;;13.98;76.75;99824.75;5044351;28;20049;-49
2022/10/17 07:32:19;;;;;;;9.80;0.95;;;;;;;13.97;76.15;99828.25;5044757;28;20131;-47
2022/10/17 07:34:46;;;;;;;8.52;1.70;;;;;;;13.98;76.48;99829.97;5042077;28;20573;-48
2022/10/17 07:37:13;;;;;;;8.68;1.15;;;;;;;14.00;75.63;99837.75;5047623;28;20602;-49
2022/10/17 07:39:39;;;;;;;7.15;0.70;;;;;;;14.07;75.59;99849.75;5047606;28;20053;-45
2022/10/17 07:42:06;;;;;;;4.57;1.15;;;;;;;14.09;75.48;99853.16;5047587;28;20500;-47
2022/10/17 07:44:34;;;;;;;7.10;1.05;;;;;;;14.10;75.81;99859.25;5045674;28;20107;-47
2022/10/17 07:47:01;;;;;;;4.57;1.35;;;;;;;14.07;75.46;99860.16;5046889;28;20091;-46
2022/10/17 07:49:28;;;;;;;8.15;1.08;;;;;;;14.07;75.76;99873.19;5044715;28;20120;-49
2022/10/17 07:51:54;;;;;;;7.93;1.10;;;;;;;14.07;75.57;99880.13;5038251;28;20139;-46
2022/10/17 07:54:22;;;;;;;6.20;1.00;;;;;;;14.07;75.74;99882.72;5039724;28;20118;-49
2022/10/17 07:56:49;;;;;;;6.45;1.00;;;;;;;14.08;75.52;99890.53;5044507;28;20128;-48
2022/10/17 07:59:18;;;;;;;7.55;0.63;;;;;;;14.12;75.50;99892.16;5043933;28;20052;-47
2022/10/17 08:01:44;;;;;;;7.65;1.42;;;;;;;14.16;75.64;99902.53;5041972;28;20080;-48
2022/10/17 08:04:11;;;;;;;5.13;1.27;;;;;;;14.21;75.70;99903.28;5038127;28;20437;-47
2022/10/17 08:06:38;;;;;;;9.00;0.88;;;;;;;14.26;75.31;99902.31;5042701;28;20531;-44
2022/10/17 08:09:05;;;;;;;7.95;0.95;;;;;;;14.33;75.64;99913.50;5043547;28;20081;-46
2022/10/17 08:11:32;;;;;;;9.77;1.75;;;;;;;14.41;75.34;99915.91;5040758;28;20932;-45
2022/10/17 08:13:58;;;;;;;8.07;1.40;;;;;;;14.51;75.29;99921.78;5044227;28;21337;-46
2022/10/17 08:16:25;;;;;;;8.85;0.98;;;;;;;14.63;75.35;99926.72;5044735;28;20072;-46
2022/10/17 08:18:52;;;;;;;8.35;1.50;;;;;;;14.79;75.33;99926.44;5038673;28;20705;-49
2022/10/17 08:21:19;;;;;;;10.48;1.23;;;;;;;14.95;75.07;99932.16;5048536;28;20045;-47
2022/10/17 08:23:46;;;;;;;6.55;1.17;;;;;;;15.11;75.26;99931.81;5045265;28;20643;-45
2022/10/17 08:26:16;;;;;;;8.63;0.88;;;;;;;15.32;74.90;99942.63;5048575;28;20048;-47
2022/10/17 08:28:43;;;;;;;11.73;1.35;;;;;;;15.51;75.46;99945.66;5041205;28;20053;-44
2022/10/17 08:31:13;;;;;;;8.68;1.35;;;;;;;15.68;75.04;99940.84;5044677;28;20546;-49
2022/10/17 08:33:41;;;;;;;7.22;1.10;;;;;;;16.00;74.70;99942.69;5047392;28;20065;-46
2022/10/17 08:36:08;;;;;;;9.55;1.10;;;;;;;16.44;74.59;99937.97;5044797;28;20052;-45
2022/10/17 08:38:36;;;;;;;8.95;1.00;;;;;;;16.88;73.06;99941.91;5042873;28;20069;-45
2022/10/17 08:46:45;;;;;;;5.05;1.17;;;;;;;16.92;70.57;99943.53;5060655;28;20380;-47
2022/10/17 08:49:22;;;;;;;6.03;1.05;;;;;;;16.85;70.44;99949.84;5078593;28;20072;-50
2022/10/17 08:51:56;;;;;;;4.72;0.70;;;;;;;16.84;70.39;99950.75;5083243;28;20123;-45
2022/10/17 08:54:41;;;;;;;7.00;0.70;;;;;;;16.93;69.90;99950.47;5093868;28;20135;-47
2022/10/17 08:57:12;;;;;;;8.90;2.50;;;;;;;17.28;70.53;99955.53;5083696;27;20529;-44
2022/10/17 08:59:40;;;;;;;12.18;1.08;;;;;;;17.69;69.84;99965.56;5083512;28;20160;-48
2022/10/17 09:05:29;;;;;;;11.70;0.75;;;;;;;18.89;68.11;99989.31;5060284;27;20565;-51
2022/10/17 09:08:08;;;;;;;8.80;0.63;;;;;;;19.68;67.38;99995.84;5022869;28;20092;-49
2022/10/17 09:13:45;;;;;;;9.68;3.15;;;;;;;21.00;64.47;99993.63;5102000;27;20208;-48
2022/10/17 09:19:00;;;;;;;7.22;1.30;;;;;;;21.48;62.09;100004.50;5087474;27;20118;-50
2022/10/17 09:24:10;;;;;;;7.07;1.10;;;;;;;20.87;61.04;100020.50;5047958;28;20892;-45
2022/10/17 09:26:44;;;;;;;12.48;1.92;;;;;;;21.04;63.07;100027.66;5024669;28;20144;-46
2022/10/17 09:29:19;;;;;;;9.20;1.00;;;;;;;21.71;62.87;100036.78;5020517;28;20108;-47
2022/10/17 09:32:09;;;;;;;7.22;0.73;;;;;;;22.63;61.70;100044.53;5019231;28;20049;-44
2022/10/17 09:34:35;;;;;;;6.82;1.13;;;;;;;23.33;61.21;100052.13;5020609;28;20206;-48
2022/10/17 09:37:02;;;;;;;3.67;1.20;;;;;;;23.92;58.90;100060.31;5022393;28;20133;-49
2022/10/17 09:39:31;;;;;;;7.28;0.73;;;;;;;24.15;56.34;100060.78;5026812;28;20132;-45
2022/10/17 09:42:00;;;;;;;7.78;1.33;;;;;;;24.36;54.97;100059.50;5036916;28;20049;-46
2022/10/17 09:49:41;;;;;;;5.75;1.42;;;;;;;25.26;53.93;100081.41;5043268;27;20124;-50
2022/10/17 09:52:17;;;;;;;6.13;1.00;;;;;;;25.73;52.91;100087.22;5033007;28;20049;-50
2022/10/17 09:54:47;;;;;;;8.52;1.10;;;;;;;26.07;52.32;100086.75;5033412;28;20284;-45
2022/10/17 09:57:15;;;;;;;7.00;2.05;;;;;;;26.23;51.10;100102.50;5017619;28;20700;-49
2022/10/17 10:02:23;;;;;;;8.75;2.90;;;;;;;26.32;50.09;100101.06;5112587;27;20573;-50
2022/10/17 10:07:29;;;;;;;9.20;0.98;;;;;;;26.50;48.91;100122.84;5056830;27;20912;-45
2022/10/17 10:09:57;;;;;;;10.75;0.75;;;;;;;26.47;47.74;100106.28;5040763;28;20068;-48
2022/10/17 10:12:28;;;;;;;8.80;1.30;;;;;;;26.03;48.67;100119.75;5035525;28;20077;-50
2022/10/17 10:14:56;;;;;;;11.57;1.40;;;;;;;25.56;48.26;100122.78;5029011;28;20045;-48
2022/10/17 10:17:40;;;;;;;7.32;0.77;;;;;;;25.65;49.31;100139.91;5033281;28;20180;-48
2022/10/17 10:25:55;;;;;;;5.15;2.20;;;;;;;24.24;47.87;100151.06;5059549;28;20454;-50
2022/10/17 10:28:25;;;;;;;8.60;2.50;;;;;;;24.03;49.03;100153.13;4989029;28;20087;-51
2022/10/17 10:30:54;;;;;;;6.57;1.98;;;;;;;23.64;49.28;100149.19;4983870;28;20046;-47
2022/10/17 10:33:24;;;;;;;6.70;2.33;;;;;;;23.25;50.03;100167.97;4983162;28;20082;-45
2022/10/17 10:35:56;;;;;;;6.63;3.17;;;;;;;22.91;50.33;100169.78;4965161;28;20133;-46
2022/10/17 10:38:23;;;;;;;10.13;3.55;;;;;;;22.60;50.99;100180.97;4980063;28;20042;-46
2022/10/17 10:40:54;;;;;;;7.60;3.13;;;;;;;22.28;51.51;100183.44;5005398;28;20121;-45
2022/10/17 10:43:44;;;;;;;4.72;2.17;;;;;;;21.96;51.61;100184.09;5002534;28;20038;-45
2022/10/17 10:54:30;;;;;;;10.77;0.95;;;;;;;21.42;52.51;100189.25;5069076;27;20130;-44
2022/10/17 10:57:02;;;;;;;7.32;1.05;;;;;;;21.37;53.46;100180.69;5011442;28;20100;-48
2022/10/17 11:05:17;;;;;;;7.70;2.67;;;;;;;20.97;53.66;100194.72;5092146;27;20474;-47
2022/10/17 11:07:52;;;;;;;9.50;2.25;;;;;;;20.90;54.02;100215.19;5078705;28;20041;-47
2022/10/17 11:10:34;;;;;;;5.70;1.33;;;;;;;20.76;53.75;100213.13;5074825;28;20086;-46
2022/10/17 11:15:50;;;;;;;9.73;1.30;;;;;;;20.57;53.86;100214.84;5095381;27;20383;-44
2022/10/17 11:20:57;;;;;;;7.05;1.30;;;;;;;20.38;54.87;100218.22;5107704;27;20482;-46
2022/10/17 11:26:10;;;;;;;6.43;2.60;;;;;;;20.20;53.99;100215.47;5108227;27;20947;-47
2022/10/17 11:28:36;;;;;;;8.35;1.88;;;;;;;20.11;54.31;100221.94;5048142;28;20075;-46
2022/10/17 11:31:10;;;;;;;7.20;1.02;;;;;;;20.04;53.79;100237.06;5032752;28;20689;-45
2022/10/17 11:36:38;;;;;;;6.15;1.67;;;;;;;19.92;54.58;100234.91;5093842;27;20585;-45
2022/10/17 11:39:13;;;;;;;6.50;0.98;;;;;;;19.91;54.62;100247.19;5057825;28;20109;-47
2022/10/17 11:42:05;;;;;;;4.57;0.82;;;;;;;19.89;54.42;100242.91;5069336;28;20051;-48
2022/10/17 11:44:36;;;;;;;6.60;1.40;;;;;;;19.84;53.73;100239.59;5068958;28;20056;-45
2022/10/17 11:50:03;;;;;;;7.00;1.17;;;;;;;19.72;53.95;100252.28;5091682;27;20362;-48
2022/10/17 11:52:55;;;;;;;5.35;1.05;;;;;;;19.74;54.20;100268.00;5075154;28;20053;-45
2022/10/17 11:55:26;;;;;;;7.20;1.13;;;;;;;19.67;54.03;100275.25;5073044;28;20044;-44
2022/10/17 12:09:10;;;;;;;5.88;0.60;;;;;;;19.47;54.67;100282.09;5075622;27;20137;-46
2022/10/17 12:25:34;;;;;;;7.75;1.20;;;;;;;19.14;55.28;100279.75;5099694;27;20129;-44
2022/10/17 12:30:54;;;;;;;4.97;0.70;;;;;;;19.07;56.14;100275.63;5112167;27;20114;-44
2022/10/17 12:49:37;;;;;;;5.18;2.13;;;;;;;18.98;56.10;100276.78;5076046;27;20126;-44
2022/10/17 12:52:26;;;;;;;6.07;1.50;;;;;;;18.89;56.34;100305.03;5053673;28;20127;-47
2022/10/17 13:00:18;;;;;;;3.83;0.82;;;;;;;19.31;55.95;100318.56;5097979;27;20376;-42
2022/10/17 13:02:47;;;;;;;3.45;0.85;;;;;;;19.42;55.40;100317.34;5061257;28;20101;-45
2022/10/17 13:05:25;;;;;;;7.35;1.73;;;;;;;19.50;55.69;100307.41;5075595;28;20392;-46
2022/10/17 13:07:54;;;;;;;6.63;1.15;;;;;;;19.65;55.29;100317.34;5075010;28;20076;-43
2022/10/17 13:10:25;;;;;;;6.93;1.02;;;;;;;19.84;54.55;100323.69;5074663;28;20131;-45
2022/10/17 13:13:03;;;;;;;;;;;;;;;19.92;54.20;100321.63;5081385;28;20127;-44
2022/10/17 13:15:30;;;;;;;6.13;1.70;;;;;;;19.90;53.88;100323.47;5081395;28;19990;-44
2022/10/17 13:17:59;;;;;;;10.30;1.10;;;;;;;19.80;53.82;100337.88;5077310;28;20052;-46
2022/10/17 13:20:28;;;;;;;6.85;1.67;;;;;;;19.61;53.78;100349.03;5074957;28;20484;-42
2022/10/17 13:22:57;;;;;;;9.55;1.20;;;;;;;19.42;54.20;100341.81;5079293;28;20056;-44
2022/10/17 13:25:26;;;;;;;3.72;0.80;;;;;;;19.31;54.41;100341.31;5075661;28;20106;-44
2022/10/17 13:28:04;;;;;;;7.07;0.77;;;;;;;19.22;54.54;100337.28;5075323;28;20123;-44
2022/10/17 13:30:35;;;;;;;4.70;1.20;;;;;;;19.18;54.89;100336.50;5073628;28;20101;-45
2022/10/17 13:33:03;;;;;;;3.28;0.85;;;;;;;19.14;54.96;100327.00;5079459;28;20040;-45
2022/10/17 13:35:36;;;;;;;8.55;1.95;;;;;;;19.09;55.45;100321.06;5072716;28;20589;-42
2022/10/17 13:38:27;;;;;;;8.18;1.73;;;;;;;19.02;55.04;100326.50;5071262;28;20451;-43
2022/10/17 13:40:54;;;;;;;5.85;1.08;;;;;;;18.99;55.48;100331.84;5076333;28;20084;-46
2022/10/17 13:43:41;;;;;;;5.05;1.65;;;;;;;19.00;55.32;100336.19;5077196;28;20135;-44
2022/10/17 13:46:22;;;;;;;6.57;1.50;;;;;;;18.99;55.87;100352.84;5073234;28;20048;-43
2022/10/17 13:49:30;;;;;;;8.48;1.55;;;;;;;18.88;55.25;100360.22;5074272;28;20032;-44
2022/10/17 13:51:59;;;;;;;3.90;1.02;;;;;;;18.88;55.33;100368.09;5076020;28;20046;-42
2022/10/17 13:59:57;;;;;;;11.02;5.25;;;;;;;18.73;55.61;100372.94;5123923;27;20447;-45
2022/10/17 14:02:28;;;;;;;6.15;1.60;;;;;;;18.71;55.34;100382.59;5060082;28;20045;-43
2022/10/17 14:10:20;;;;;;;6.85;1.00;;;;;;;18.66;55.43;100396.75;5024700;28;20231;-43
2022/10/17 14:12:47;;;;;;;6.10;0.88;;;;;;;18.63;55.50;100392.47;4999862;28;20329;-43
2022/10/17 14:15:17;;;;;;;7.32;0.85;;;;;;;18.57;55.34;100390.03;5002279;28;20140;-44
2022/10/17 14:17:45;;;;;;;8.35;1.15;;;;;;;18.53;55.53;100391.03;5001621;28;20141;-42
2022/10/17 14:20:19;;;;;;;11.38;1.63;;;;;;;18.50;55.99;100392.84;5000853;28;20525;-46